• Join FlightAware (Why Join?)
  • Login
  • US Flag 
06:57AM EDT


 

Airport Tracker/Info


-or-


 

Live Flight TrackerFlight Track Log ✈ DAL6115 ✈ 07-Apr-2013 ✈ KTVC - KDTW

Flight Track Log - Related Links

Times and Time Zones

All times are in EDT time to prevent confusion due to time zone crossing. See the DAL6115 flight status page for this flight to view local times or setup timezone preferences in your user account.

Time Position Orientation Groundspeed Altitude Reporting Facility
EDT Latitude Longitude Course Direction KTS MPH feet Rate Location/Type
01:48PM 44.6872 -85.5967 160° South 209 241 4,300  Level Minneapolis Center
01:49PM 44.6394 -85.5297 135° Southeast 231 266 6,100 1,860 Climbing Minneapolis Center
01:50PM 44.5817 -85.4519 136° Southeast 262 302 8,200 2,040 Climbing Minneapolis Center
01:51PM 44.5200 -85.3714 137° Southeast 293 337 10,400 1,980 Climbing Minneapolis Center
01:52PM 44.2797 -85.0389 136° Southeast  Level FlightAware Approximate
01:52PM 44.4417 -85.2664 136° Southeast 316 364 12,300  Level Minneapolis Center
01:53PM 44.3706 -85.1708 136° Southeast 342 394 13,800 1,500 Climbing Minneapolis Center
01:54PM 44.2967 -85.0717 136° Southeast 361 415 15,400 1,320 Climbing Minneapolis Center
01:55PM 44.2347 -84.9928 138° Southeast 370 426 16,600 1,500 Climbing Minneapolis Center
01:56PM 44.1422 -84.8683 136° Southeast 382 440 18,500 1,620 Climbing Minneapolis Center
01:57PM 44.0639 -84.7664 137° Southeast 386 444 20,000 1,200 Climbing Minneapolis Center
01:58PM 43.9800 -84.6558 137° Southeast 394 453 21,000 480 Climbing Minneapolis Center
01:59PM 43.8939 -84.5414 136° Southeast 417 480 21,000  Level Minneapolis Center
02:00PM 43.8103 -84.4356 138° Southeast 412 474 21,000  Level Minneapolis Center
02:01PM 43.7372 -84.3411 137° Southeast 374 430 21,000  Level Minneapolis Center
02:02PM 43.6561 -84.2358 137° Southeast 342 394 21,000  Level Minneapolis Center
02:03PM 43.5969 -84.1606 137° Southeast 346 398 21,000  Level Cleveland Center
02:04PM 43.5286 -84.0794 139° Southeast 334 384 21,000  Level Cleveland Center
02:05PM 43.4497 -84.0633 172° South 302 348 21,000 -720 Level Cleveland Center
02:06PM 43.3931 -84.1458 227° Southwest 245 282 19,600 -1,500 Descending Cleveland Center
02:07PM 43.3361 -84.2339 228° Southwest 279 321 18,000 -1,560 Descending Cleveland Center
02:08PM 43.2719 -84.2844 210° Southwest 279 321 16,500 -1,500 Descending Cleveland Center
02:09PM 43.1872 -84.2650 170° South 291 335 15,100 -780 Descending Cleveland Center
02:10PM 43.1281 -84.1619 128° Southeast 278 320 15,000 -60 Descending Cleveland Center
02:11PM 43.0792 -84.0539 122° Southeast 304 350 15,000 -360 Level Cleveland Center
02:11PM 43.0561 -83.9900 116° Southeast 340 391 14,500 -900 Descending Cleveland Center
02:12PM 43.0303 -83.9406 126° Southeast 323 372 14,100 -1,020 Descending Cleveland Center
02:12PM 43.0069 -83.8853 120° Southeast 349 402 13,600 -1,020 Descending Cleveland Center
02:13PM 42.9733 -83.8239 127° Southeast 334 384 13,100 -1,080 Descending Cleveland Center
02:13PM 42.9325 -83.7933 151° Southeast 310 357 12,400 -1,020 Descending Cleveland Center
02:14PM 42.8975 -83.7689 153° Southeast 313 360 12,100 -600 Descending Cleveland Center
02:14PM 42.8567 -83.7469 158° South 299 344 11,800 -300 Descending Cleveland Center
02:15PM 42.8197 -83.7253 157° South 305 351 11,800 -720 Level Cleveland Center
02:15PM 42.7764 -83.7006 157° South 305 351 11,100 -1,020 Descending Cleveland Center
02:16PM 42.7417 -83.6789 155° Southeast 305 351 10,800 -1,080 Descending Cleveland Center
02:17PM 42.6656 -83.6356 157° South 305 351 9,600 -1,560 Descending Cleveland Center
02:17PM 42.6247 -83.6083 154° Southeast 279 321 8,300 -1,920 Descending Cleveland Center
02:18PM 42.6069 -83.5708 123° Southeast 275 316 7,700 -1,680 Descending Cleveland Center
02:18PM 42.5919 -83.5050 107° East 291 335 6,600 -1,440 Descending Cleveland Center
02:19PM 42.5803 -83.4681 113° Southeast 270 311 6,300 -600 Descending Cleveland Center
02:19PM 42.5881 -83.4092 80° East 238 274 6,000 -300 Descending Cleveland Center
02:20PM 42.5908 -83.3781 83° East 233 268 6,000 60 Level Cleveland Center
02:21PM 42.6047 -83.3253 70° East 230 265 6,100  Climbing Cleveland Center
02:21PM 42.6075 -83.2914 84° East 233 268 6,000 -600 Descending Cleveland Center
02:22PM 42.5964 -83.2317 104° East 240 276 5,500 -900 Descending Cleveland Center
02:22PM 42.5644 -83.1711 126° Southeast 196 226 4,600 -720 Descending Cleveland Center
02:23PM 42.5125 -83.1661 176° South 186 214 4,100 -300 Descending Cleveland Center
02:24PM 42.4639 -83.1925 202° Southwest 176 203 4,000  Descending Cleveland Center
02:25PM 42.4258 -83.2217 210° Southwest 182 209 4,100  Climbing Cleveland Center
02:27PM 42.3769 -83.2561 207° Southwest 176 203 4,100 -480 Level Cleveland Center
02:28PM 42.3283 -83.2908 208° Southwest 189 217 3,100 -1,020 Descending Cleveland Center